createdAt,value
2016-06-08T11:40:00.014Z,1864
2016-06-08T11:40:31.826Z,1904
2016-06-08T11:41:31.830Z,1900
2016-06-08T11:42:31.848Z,1860
2016-06-08T11:43:31.851Z,1924
2016-06-08T11:44:33.056Z,1868
2016-06-08T11:45:31.559Z,1884
2016-06-08T11:46:32.734Z,1932
2016-06-08T11:47:31.737Z,1928
2016-06-08T11:48:31.895Z,1852
2016-06-08T11:49:31.914Z,1752
2016-06-08T11:50:33.385Z,1732
2016-06-08T11:51:31.950Z,1816
2016-06-08T11:52:31.766Z,1884
2016-06-08T11:53:31.611Z,1868
2016-06-08T11:54:31.927Z,1824
2016-06-08T11:55:32.711Z,1828
2016-06-08T11:56:31.948Z,1812
2016-06-08T11:57:32.358Z,1784
2016-06-08T11:58:31.985Z,1768
2016-06-08T11:59:31.690Z,1720
2016-06-08T12:00:38.149Z,1696
2016-06-08T12:01:32.008Z,1700
2016-06-08T12:02:32.479Z,1728
2016-06-08T12:03:32.608Z,1672
2016-06-08T12:04:31.704Z,1784
2016-06-08T12:05:31.862Z,1776
2016-06-08T12:06:42.181Z,1712
2016-06-08T12:07:32.040Z,1692
2016-06-08T12:08:31.731Z,1692
2016-06-08T12:09:35.249Z,1684
2016-06-08T12:10:32.814Z,1676
2016-06-08T12:11:32.082Z,1656
2016-06-08T12:12:32.101Z,1704
2016-06-08T12:13:32.884Z,1688
2016-06-08T12:14:32.090Z,1668
2016-06-08T12:15:31.828Z,1656
2016-06-08T12:16:32.158Z,1648
2016-06-08T12:17:32.755Z,1688
2016-06-08T12:18:32.148Z,1624
2016-06-08T12:19:32.931Z,1672
2016-06-08T12:20:32.122Z,1652
2016-06-08T12:21:32.655Z,1680
2016-06-08T12:22:32.002Z,1656
2016-06-08T12:23:32.161Z,1708
2016-06-08T12:24:31.695Z,1732
2016-06-08T12:25:32.166Z,1736
2016-06-08T12:26:32.029Z,1744
2016-06-08T12:27:32.250Z,1712
2016-06-08T12:28:32.503Z,1724
2016-06-08T12:29:32.866Z,1400
2016-06-08T12:30:32.696Z,1324
2016-06-08T12:31:32.276Z,1260
2016-06-08T12:32:33.217Z,1384
2016-06-08T12:33:32.079Z,1628
2016-06-08T12:34:32.238Z,1556
2016-06-08T12:35:32.084Z,1552
2016-06-08T12:36:32.259Z,1572
2016-06-08T12:37:32.262Z,1628
2016-06-08T12:38:32.264Z,1676
2016-06-08T12:39:32.282Z,1700
2016-06-08T12:40:32.317Z,1748
2016-06-08T12:41:32.772Z,1720
2016-06-08T12:42:32.322Z,1728
2016-06-08T12:43:32.840Z,1652
2016-06-08T12:44:32.687Z,1588
2016-06-08T12:45:32.345Z,1616
2016-06-08T12:46:32.333Z,1552
2016-06-08T12:47:32.367Z,1520
2016-06-08T12:48:32.353Z,1512
2016-06-08T12:49:32.372Z,1472
2016-06-08T12:50:32.375Z,1504
2016-06-08T12:51:32.377Z,1500
2016-06-08T12:52:32.427Z,1484
2016-06-08T12:53:32.383Z,1460
2016-06-08T12:54:33.322Z,1456
2016-06-08T12:55:32.325Z,1420
2016-06-08T12:56:32.422Z,1388
2016-06-08T12:57:32.408Z,1360
2016-06-08T12:58:32.444Z,1312
2016-06-08T12:59:32.289Z,1304
2016-06-08T13:00:32.480Z,1284
2016-06-08T13:01:32.452Z,1260
2016-06-08T13:02:32.454Z,1236
2016-06-08T13:03:33.629Z,1212
2016-06-08T13:04:32.474Z,1204
2016-06-08T13:05:33.149Z,1200
2016-06-08T13:06:32.496Z,1200
2016-06-08T13:07:32.576Z,1204
2016-06-08T13:08:32.501Z,1192
2016-06-08T13:09:32.503Z,1180
2016-06-08T13:10:32.506Z,1164
2016-06-08T13:11:32.526Z,1172
2016-06-08T13:12:32.528Z,1176
2016-06-08T13:13:32.592Z,1164
2016-06-08T13:14:34.314Z,1160
2016-06-08T13:15:33.192Z,1160
2016-06-08T13:16:33.117Z,1160
2016-06-08T13:17:32.619Z,1160
2016-06-08T13:18:32.606Z,1156
2016-06-08T13:19:32.608Z,1160
2016-06-08T13:20:32.595Z,1168
2016-06-08T13:21:32.599Z,1184
2016-06-08T13:22:32.617Z,1208
2016-06-08T13:23:32.619Z,1196
2016-06-08T13:24:32.622Z,1204
2016-06-08T13:25:33.375Z,1216
2016-06-08T13:26:32.644Z,1220
2016-06-08T13:27:33.708Z,1220
2016-06-08T13:28:32.680Z,1216
2016-06-08T13:29:32.527Z,1224
2016-06-08T13:30:32.701Z,1220
2016-06-08T13:31:32.688Z,1228
2016-06-08T13:32:32.691Z,1256
2016-06-08T13:33:32.693Z,1232
2016-06-08T13:34:32.758Z,1236
2016-06-08T13:35:32.730Z,1236
2016-06-08T13:36:33.514Z,1240
2016-06-08T13:37:32.735Z,1232
2016-06-08T13:38:33.300Z,1232
2016-06-08T13:39:32.740Z,1232
2016-06-08T13:40:32.744Z,1220
2016-06-08T13:41:32.762Z,1236
2016-06-08T13:42:32.765Z,1232
2016-06-08T13:43:32.611Z,1228
2016-06-08T13:44:33.067Z,1232
2016-06-08T13:45:33.226Z,1224
2016-06-08T13:46:32.635Z,1240
2016-06-08T13:47:33.653Z,1256
2016-06-08T13:48:32.812Z,1272
2016-06-08T13:49:33.268Z,1264
2016-06-08T13:50:32.833Z,1264
2016-06-08T13:51:32.836Z,1260
2016-06-08T13:52:32.838Z,1264
2016-06-08T13:53:32.856Z,1260
2016-06-08T13:54:32.859Z,1276
2016-06-08T13:55:32.861Z,1272
2016-06-08T13:56:32.865Z,1276
2016-06-08T13:57:32.867Z,1284
2016-06-08T13:58:33.526Z,1284
2016-06-08T13:59:32.889Z,1268
2016-06-08T14:00:33.500Z,1244
2016-06-08T14:01:32.910Z,1252
2016-06-08T14:02:32.912Z,1232
2016-06-08T14:03:32.930Z,1232
2016-06-08T14:04:32.933Z,1248
2016-06-08T14:05:32.952Z,1208
2016-06-08T14:06:32.954Z,1204
2016-06-08T14:07:32.957Z,1204
2016-06-08T14:08:32.960Z,1204
2016-06-08T14:09:33.368Z,1188
2016-06-08T14:10:32.964Z,1196
2016-06-08T14:11:32.983Z,1192
2016-06-08T14:12:32.985Z,1176
2016-06-08T14:13:33.060Z,1172
2016-06-08T14:14:33.237Z,1160
2016-06-08T14:15:33.697Z,1164
2016-06-08T14:16:33.609Z,1160
2016-06-08T14:17:33.834Z,1164
2016-06-08T14:18:33.966Z,1108
2016-06-08T14:19:34.001Z,1116
2016-06-08T14:20:34.333Z,1112
2016-06-08T14:21:35.930Z,1100
2016-06-08T14:22:35.371Z,1096
2016-06-08T14:23:34.108Z,1080
2016-06-08T14:24:34.290Z,1076
2016-06-08T14:25:34.332Z,1076
2016-06-08T14:26:34.185Z,1068
2016-06-08T14:27:34.367Z,1048
2016-06-08T14:28:34.402Z,1044
2016-06-08T14:29:34.429Z,1032
2016-06-08T14:30:34.768Z,1024
2016-06-08T14:31:35.420Z,1012
2016-06-08T14:32:34.463Z,1008
2016-06-08T14:33:35.315Z,996
2016-06-08T14:34:34.479Z,980
2016-06-08T14:35:34.500Z,960
2016-06-08T14:36:34.552Z,948
2016-06-08T14:37:34.527Z,940
2016-06-08T14:38:34.377Z,936
2016-06-08T14:39:34.537Z,932
2016-06-08T14:40:34.541Z,928
2016-06-08T14:41:34.545Z,924
2016-06-08T14:42:35.253Z,920
2016-06-08T14:43:34.554Z,916
2016-06-08T14:44:35.651Z,904
2016-06-08T14:45:34.576Z,904
2016-06-08T14:46:34.579Z,904
2016-06-08T14:47:34.599Z,904
2016-06-08T14:48:34.586Z,904
2016-06-08T14:49:34.589Z,900
2016-06-08T14:50:34.608Z,900
2016-06-08T14:51:34.611Z,900
2016-06-08T14:52:34.614Z,900
2016-06-08T14:53:35.758Z,900
2016-06-08T14:54:34.636Z,900
2016-06-08T14:55:35.436Z,896
2016-06-08T14:56:34.642Z,896
2016-06-08T14:57:34.677Z,888
2016-06-08T14:58:34.649Z,884
2016-06-08T14:59:34.666Z,880
2016-06-08T15:00:34.670Z,880
2016-06-08T15:01:34.673Z,876
2016-06-08T15:02:34.676Z,876
2016-06-08T15:03:34.679Z,872
2016-06-08T15:04:35.620Z,864
2016-06-08T15:05:34.560Z,856
2016-06-08T15:06:35.001Z,856
2016-06-08T15:07:34.707Z,856
2016-06-08T15:08:34.710Z,852
2016-06-08T15:09:34.573Z,848
2016-06-08T15:10:34.733Z,848
2016-06-08T15:11:34.735Z,852
2016-06-08T15:12:34.738Z,852
2016-06-08T15:13:34.756Z,848
2016-06-08T15:14:34.760Z,848
2016-06-08T15:15:35.341Z,848
2016-06-08T15:16:34.813Z,840
2016-06-08T15:17:34.988Z,848
2016-06-08T15:18:34.772Z,844
2016-06-08T15:19:35.931Z,844
2016-06-08T15:20:34.794Z,844
2016-06-08T15:21:34.797Z,844
2016-06-08T15:22:34.800Z,844
2016-06-08T15:23:34.803Z,840
2016-06-08T15:24:34.807Z,840
2016-06-08T15:25:34.824Z,848
2016-06-08T15:26:35.938Z,848
2016-06-08T15:27:34.830Z,852
2016-06-08T15:28:34.834Z,852
2016-06-08T15:29:34.836Z,852
2016-06-08T15:30:35.747Z,852
2016-06-08T15:31:35.390Z,852
2016-06-08T15:32:34.862Z,844
2016-06-08T15:33:34.865Z,848
2016-06-08T15:34:34.868Z,840
2016-06-08T15:35:34.871Z,848
2016-06-08T15:36:34.875Z,856
2016-06-08T15:37:35.894Z,852
2016-06-08T15:38:34.897Z,852
2016-06-08T15:39:35.868Z,848
2016-06-08T15:40:34.903Z,852
2016-06-08T15:41:35.562Z,860
2016-06-08T15:42:34.924Z,860
2016-06-08T15:43:34.927Z,868
2016-06-08T15:44:34.930Z,864
2016-06-08T15:45:35.215Z,872
2016-06-08T15:46:36.249Z,868
2016-06-08T15:47:34.955Z,864
2016-06-08T15:48:35.474Z,868
2016-06-08T15:49:34.961Z,872
2016-06-08T15:50:35.449Z,868
2016-06-08T15:51:34.984Z,872
2016-06-08T15:52:35.127Z,872
2016-06-08T15:53:34.973Z,868
2016-06-08T15:54:34.993Z,856
2016-06-08T15:55:34.996Z,852
2016-06-08T15:56:34.999Z,848
2016-06-08T15:57:35.017Z,848
2016-06-08T15:58:35.036Z,832
2016-06-08T15:59:35.367Z,832
2016-06-08T16:00:35.714Z,832
2016-06-08T16:01:35.514Z,832
2016-06-08T16:02:35.048Z,832
2016-06-08T16:03:35.145Z,824
2016-06-08T16:04:35.055Z,808
2016-06-08T16:05:34.902Z,796
2016-06-08T16:06:35.061Z,784
2016-06-08T16:07:35.063Z,780
2016-06-08T16:08:35.082Z,772
2016-06-08T16:09:35.085Z,768
2016-06-08T16:10:36.057Z,764
2016-06-08T16:11:34.935Z,756
2016-06-08T16:12:35.985Z,752
2016-06-08T16:13:35.097Z,748
2016-06-08T16:14:35.101Z,752
2016-06-08T16:15:36.135Z,740
2016-06-08T16:16:35.700Z,728
2016-06-08T16:17:35.189Z,720
2016-06-08T16:18:35.175Z,712
2016-06-08T16:19:35.131Z,708
2016-06-08T16:20:35.009Z,704
2016-06-08T16:21:36.122Z,704
2016-06-08T16:22:35.157Z,704
2016-06-08T16:23:35.941Z,696
2016-06-08T16:24:35.163Z,680
2016-06-08T16:25:35.181Z,676
2016-06-08T16:26:35.184Z,672
2016-06-08T16:27:35.203Z,672
2016-06-08T16:28:35.190Z,668
2016-06-08T16:29:35.193Z,660
2016-06-08T16:30:35.384Z,660
2016-06-08T16:31:35.621Z,656
2016-06-08T16:32:35.874Z,652
2016-06-08T16:33:35.205Z,644
2016-06-08T16:34:36.147Z,640
2016-06-08T16:35:35.212Z,636
2016-06-08T16:36:36.199Z,616
2016-06-08T16:37:35.296Z,640
2016-06-08T16:38:35.237Z,644
2016-06-08T16:39:35.256Z,628
2016-06-08T16:40:35.087Z,648
2016-06-08T16:41:35.263Z,640
2016-06-08T16:42:35.297Z,624
2016-06-08T16:43:36.439Z,624
2016-06-08T16:44:35.287Z,624
2016-06-08T16:45:35.946Z,620
2016-06-08T16:46:35.480Z,628
2016-06-08T16:47:35.952Z,596
2016-06-08T16:48:35.299Z,616
2016-06-08T16:49:35.302Z,620
2016-06-08T16:50:35.305Z,616
2016-06-08T16:51:35.183Z,624
2016-06-08T16:52:35.171Z,616
2016-06-08T16:53:35.174Z,604
2016-06-08T16:54:36.036Z,608
2016-06-08T16:55:35.336Z,608
2016-06-08T16:56:35.636Z,604
2016-06-08T16:57:35.343Z,596
2016-06-08T16:58:36.454Z,588
2016-06-08T16:59:35.364Z,588
2016-06-08T17:00:36.570Z,560
2016-06-08T17:01:36.324Z,576
2016-06-08T17:02:35.388Z,572
2016-06-08T17:03:35.236Z,564
2016-06-08T17:04:35.239Z,560
2016-06-08T17:05:35.679Z,556
2016-06-08T17:06:35.401Z,556
2016-06-08T17:07:35.560Z,556
2016-06-08T17:08:35.424Z,548
2016-06-08T17:09:36.519Z,544
2016-06-08T17:10:35.304Z,540
2016-06-08T17:11:35.292Z,536
2016-06-08T17:12:35.435Z,532
2016-06-08T17:13:35.126Z,528
2016-06-08T17:14:35.456Z,516
2016-06-08T17:15:35.460Z,528
2016-06-08T17:16:36.166Z,532
2016-06-08T17:17:35.466Z,528
2016-06-08T17:18:36.001Z,528
2016-06-08T17:19:35.535Z,528
2016-06-08T17:20:36.022Z,524
2016-06-08T17:21:35.338Z,528
2016-06-08T17:22:35.342Z,520
2016-06-08T17:23:35.562Z,516
2016-06-08T17:24:35.520Z,512
2016-06-08T17:25:35.507Z,512
2016-06-08T17:26:35.525Z,500
2016-06-08T17:27:36.341Z,496
2016-06-08T17:28:35.531Z,496
2016-06-08T17:29:35.941Z,496
2016-06-08T17:30:35.538Z,492
2016-06-08T17:31:37.572Z,476
2016-06-08T17:32:35.419Z,468
2016-06-08T17:33:35.562Z,464
2016-06-08T17:34:35.441Z,456
2016-06-08T17:35:35.584Z,452
2016-06-08T17:36:35.432Z,448
2016-06-08T17:37:35.434Z,444
2016-06-08T17:38:36.453Z,436
2016-06-08T17:39:35.611Z,432
2016-06-08T17:40:35.989Z,424
2016-06-08T17:41:35.618Z,420
2016-06-08T17:42:36.731Z,420
2016-06-08T17:43:35.624Z,416
2016-06-08T17:44:35.627Z,416
2016-06-08T17:45:35.630Z,416
2016-06-08T17:46:35.508Z,412
2016-06-08T17:47:35.637Z,408
2016-06-08T17:48:35.655Z,404
2016-06-08T17:49:36.236Z,396
2016-06-08T17:50:35.709Z,392
2016-06-08T17:51:35.773Z,392
2016-06-08T17:52:35.684Z,388
2016-06-08T17:53:36.812Z,388
2016-06-08T17:54:35.704Z,384
2016-06-08T17:55:35.708Z,380
2016-06-08T17:56:35.696Z,384
2016-06-08T17:57:35.714Z,384
2016-06-08T17:58:35.560Z,376
2016-06-08T17:59:35.720Z,380
2016-06-08T18:00:36.161Z,372
2016-06-08T18:01:35.883Z,364
2016-06-08T18:02:35.839Z,364
2016-06-08T18:03:35.749Z,360
2016-06-08T18:04:36.735Z,356
2016-06-08T18:05:35.754Z,352
2016-06-08T18:06:35.758Z,348
2016-06-08T18:07:35.760Z,344
2016-06-08T18:08:35.763Z,336
2016-06-08T18:09:35.783Z,328
2016-06-08T18:10:35.786Z,324
2016-06-08T18:11:36.054Z,316
2016-06-08T18:12:35.776Z,312
2016-06-08T18:13:36.921Z,300
2016-06-08T18:14:35.798Z,296
2016-06-08T18:15:36.660Z,292
2016-06-08T18:16:36.944Z,288
2016-06-08T18:17:35.807Z,280
2016-06-08T18:18:35.811Z,280
2016-06-08T18:19:35.828Z,276
2016-06-08T18:20:35.878Z,276
2016-06-08T18:21:35.866Z,272
2016-06-08T18:22:36.151Z,268
2016-06-08T18:23:35.732Z,260
2016-06-08T18:24:37.063Z,256
2016-06-08T18:25:35.863Z,256
2016-06-08T18:26:36.616Z,256
2016-06-08T18:27:35.869Z,252
2016-06-08T18:28:35.873Z,248
2016-06-08T18:29:35.875Z,248
2016-06-08T18:30:35.878Z,248
2016-06-08T18:31:36.256Z,248
2016-06-08T18:32:36.760Z,244
2016-06-08T18:33:36.012Z,244
2016-06-08T18:34:35.906Z,236
2016-06-08T18:35:36.972Z,236
2016-06-08T18:36:35.928Z,232
2016-06-08T18:37:36.619Z,228
2016-06-08T18:38:35.934Z,224
2016-06-08T18:39:35.937Z,220
2016-06-08T18:40:35.940Z,212
2016-06-08T18:41:35.943Z,212
2016-06-08T18:42:35.946Z,208
2016-06-08T18:43:35.965Z,204
2016-06-08T18:44:36.265Z,200
2016-06-08T18:45:35.956Z,192
2016-06-08T18:46:35.974Z,188
2016-06-08T18:47:36.430Z,188
2016-06-08T18:48:36.934Z,184
2016-06-08T18:49:35.983Z,180
2016-06-08T18:50:35.845Z,176
2016-06-08T18:51:35.990Z,172
2016-06-08T18:52:35.993Z,168
2016-06-08T18:53:35.996Z,168
2016-06-08T18:54:36.014Z,164
2016-06-08T18:55:36.268Z,160
2016-06-08T18:56:35.864Z,156
2016-06-08T18:57:36.024Z,152
2016-06-08T18:58:36.026Z,152
2016-06-08T18:59:36.936Z,148
2016-06-08T19:00:36.079Z,144
2016-06-08T19:01:36.193Z,144
2016-06-08T19:02:36.336Z,136
2016-06-08T19:03:36.042Z,136
2016-06-08T19:04:36.061Z,132
2016-06-08T19:05:36.064Z,132
2016-06-08T19:06:36.223Z,124
2016-06-08T19:07:36.071Z,124
2016-06-08T19:08:37.135Z,120
2016-06-08T19:09:36.076Z,116
2016-06-08T19:10:36.876Z,112
2016-06-08T19:11:36.083Z,112
2016-06-08T19:12:36.101Z,108
2016-06-08T19:13:36.088Z,104
2016-06-08T19:14:36.092Z,96
2016-06-08T19:15:36.095Z,96
2016-06-08T19:16:35.973Z,96
2016-06-08T19:17:36.585Z,92
2016-06-08T19:18:35.979Z,88
2016-06-08T19:19:37.201Z,164
2016-06-08T19:20:35.985Z,172
2016-06-08T19:21:36.785Z,168
2016-06-08T19:22:36.194Z,164
2016-06-08T19:23:36.057Z,164
2016-06-08T19:24:36.153Z,156
2016-06-08T19:25:36.172Z,152
2016-06-08T19:26:36.191Z,152
2016-06-08T19:27:36.226Z,148
2016-06-08T19:28:36.432Z,144
2016-06-08T19:29:36.168Z,140
2016-06-08T19:30:37.313Z,136
2016-06-08T19:31:36.488Z,132
2016-06-08T19:32:37.350Z,128
2016-06-08T19:33:36.212Z,124
2016-06-08T19:34:36.200Z,120
2016-06-08T19:35:36.203Z,120
2016-06-08T19:36:36.221Z,116
2016-06-08T19:37:36.224Z,116
2016-06-08T19:38:36.071Z,112
2016-06-08T19:39:36.480Z,112
2016-06-08T19:40:36.280Z,108
2016-06-08T19:41:37.455Z,104
2016-06-08T19:42:36.240Z,104
2016-06-08T19:43:37.056Z,100
2016-06-08T19:44:36.262Z,100
2016-06-08T19:45:36.265Z,100
2016-06-08T19:46:36.112Z,96
2016-06-08T19:47:36.771Z,96
2016-06-08T19:48:36.290Z,92
2016-06-08T19:49:36.277Z,92
2016-06-08T19:50:36.296Z,92
2016-06-08T19:51:36.315Z,92
2016-06-08T19:52:37.270Z,88
2016-06-08T19:53:36.306Z,88
2016-06-08T19:54:36.917Z,88
2016-06-08T19:55:36.311Z,88
2016-06-08T19:56:36.330Z,88
2016-06-08T19:57:36.474Z,84
2016-06-08T19:58:36.336Z,88
2016-06-08T19:59:36.339Z,84
2016-06-08T20:00:36.342Z,88
2016-06-08T20:01:37.236Z,84
2016-06-08T20:02:37.395Z,84
2016-06-08T20:03:37.493Z,84
2016-06-08T20:04:36.370Z,84
2016-06-08T20:05:37.108Z,84
2016-06-08T20:06:36.377Z,84
2016-06-08T20:07:36.363Z,80
2016-06-08T20:08:36.227Z,84
2016-06-08T20:09:36.402Z,84
2016-06-08T20:10:36.389Z,84
2016-06-08T20:11:36.407Z,84
2016-06-08T20:12:36.567Z,80
2016-06-08T20:13:36.414Z,80
2016-06-08T20:14:37.526Z,80
2016-06-08T20:15:36.420Z,80
2016-06-08T20:16:37.251Z,80
2016-06-08T20:17:37.066Z,80
2016-06-08T20:18:36.289Z,84
2016-06-08T20:19:36.447Z,80
2016-06-08T20:20:36.450Z,80
2016-06-08T20:21:36.314Z,84
2016-06-08T20:22:36.473Z,84
2016-06-08T20:23:36.865Z,80
2016-06-08T20:24:36.463Z,84
2016-06-08T20:25:36.466Z,84
2016-06-08T20:26:36.516Z,80
2016-06-08T20:27:37.582Z,80
2016-06-08T20:28:36.491Z,84
2016-06-08T20:29:36.339Z,84
2016-06-08T20:30:36.497Z,84
2016-06-08T20:31:36.640Z,80
2016-06-08T20:32:36.659Z,84
2016-06-08T20:33:36.506Z,84
2016-06-08T20:34:36.775Z,84
2016-06-08T20:35:36.513Z,80
2016-06-08T20:36:37.641Z,80
2016-06-08T20:37:36.519Z,80
2016-06-08T20:38:37.411Z,84
2016-06-08T20:39:36.525Z,80
2016-06-08T20:40:36.575Z,84
2016-06-08T20:41:36.546Z,84
2016-06-08T20:42:36.549Z,84
2016-06-08T20:43:36.552Z,80
2016-06-08T20:44:36.555Z,84
2016-06-08T20:45:36.762Z,84
2016-06-08T20:46:36.546Z,84
2016-06-08T20:47:36.111Z,80
2016-06-08T20:48:36.583Z,84
2016-06-08T20:49:37.384Z,80
2016-06-08T20:50:36.574Z,84
2016-06-08T20:51:36.421Z,84
2016-06-08T20:52:36.580Z,84
2016-06-08T20:53:36.599Z,84
2016-06-08T20:54:36.602Z,80
2016-06-08T20:55:36.590Z,80
2016-06-08T20:56:36.953Z,80
2016-06-08T20:57:36.439Z,80
2016-06-08T20:58:36.646Z,84
2016-06-08T20:59:36.602Z,84
2016-06-08T21:00:37.698Z,80
2016-06-08T21:01:36.607Z,84
2016-06-08T21:02:36.893Z,84
2016-06-08T21:03:36.614Z,84
2016-06-08T21:04:36.617Z,80
2016-06-08T21:05:36.636Z,80
2016-06-08T21:06:36.640Z,80
2016-06-08T21:07:37.189Z,80
2016-06-08T21:08:36.645Z,80
2016-06-08T21:09:36.993Z,80
2016-06-08T21:10:36.652Z,80
2016-06-08T21:11:37.264Z,80
2016-06-08T21:12:36.673Z,84
2016-06-08T21:13:36.677Z,80
2016-06-08T21:14:36.680Z,80
2016-06-08T21:15:36.667Z,80
2016-06-08T21:16:36.670Z,80
2016-06-08T21:17:36.673Z,80
2016-06-08T21:18:37.457Z,84
2016-06-08T21:19:36.695Z,84
2016-06-08T21:20:36.932Z,84
2016-06-08T21:21:36.685Z,84
2016-06-08T21:22:37.220Z,80
2016-06-08T21:23:36.770Z,80
2016-06-08T21:24:36.694Z,84
2016-06-08T21:25:36.698Z,80
2016-06-08T21:26:36.778Z,84
2016-06-08T21:27:36.704Z,80
2016-06-08T21:28:36.707Z,84
2016-06-08T21:29:37.523Z,80
2016-06-08T21:30:36.713Z,80
2016-06-08T21:31:37.232Z,80
2016-06-08T21:32:36.939Z,80
2016-06-08T21:33:37.253Z,80
2016-06-08T21:34:36.742Z,80
2016-06-08T21:35:36.729Z,80
2016-06-08T21:36:36.731Z,80
2016-06-08T21:37:36.923Z,80
2016-06-08T21:38:36.737Z,80
2016-06-08T21:39:36.757Z,80
2016-06-08T21:40:37.649Z,80
2016-06-08T21:41:36.778Z,80
2016-06-08T21:42:37.219Z,80
2016-06-08T21:43:36.753Z,80
2016-06-08T21:44:37.334Z,80
2016-06-08T21:45:36.775Z,84
2016-06-08T21:46:36.778Z,80
2016-06-08T21:47:36.640Z,80
2016-06-08T21:48:36.627Z,80
2016-06-08T21:49:36.788Z,80
2016-06-08T21:50:36.805Z,84
2016-06-08T21:51:37.544Z,80
2016-06-08T21:52:36.796Z,80
2016-06-08T21:53:37.252Z,80
2016-06-08T21:54:36.803Z,80
2016-06-08T21:55:37.431Z,80
2016-06-08T21:56:36.809Z,84
2016-06-08T21:57:36.812Z,84
2016-06-08T21:58:36.815Z,80
2016-06-08T21:59:36.818Z,80
2016-06-08T22:00:36.821Z,84
2016-06-08T22:01:36.825Z,80
2016-06-08T22:02:37.967Z,80
2016-06-08T22:03:36.768Z,84
2016-06-08T22:04:37.584Z,80
2016-06-08T22:05:36.679Z,80
2016-06-08T22:06:37.668Z,84
2016-06-08T22:07:36.842Z,84
2016-06-08T22:08:36.861Z,80
2016-06-08T22:09:36.849Z,84
2016-06-08T22:10:36.852Z,84
2016-06-08T22:11:36.855Z,84
2016-06-08T22:12:36.858Z,84
2016-06-08T22:13:37.705Z,84
2016-06-08T22:14:36.864Z,84
2016-06-08T22:15:39.039Z,84
2016-06-08T22:16:36.870Z,84
2016-06-08T22:17:37.452Z,84
2016-06-08T22:18:36.877Z,84
2016-06-08T22:19:36.879Z,84
2016-06-08T22:20:36.914Z,84
2016-06-08T22:21:36.885Z,84
2016-06-08T22:22:36.889Z,84
2016-06-08T22:23:36.892Z,84
2016-06-08T22:24:38.004Z,84
2016-06-08T22:25:36.898Z,80
2016-06-08T22:26:37.494Z,84
2016-06-08T22:27:36.904Z,80
2016-06-08T22:28:37.704Z,84
2016-06-08T22:29:36.973Z,84
2016-06-08T22:30:36.850Z,84
2016-06-08T22:31:36.917Z,84
2016-06-08T22:32:36.747Z,84
2016-06-08T22:33:36.970Z,84
2016-06-08T22:34:36.926Z,80
2016-06-08T22:35:38.038Z,84
2016-06-08T22:36:36.932Z,84
2016-06-08T22:37:38.044Z,84
2016-06-08T22:38:36.985Z,84
2016-06-08T22:39:36.941Z,84
2016-06-08T22:40:36.928Z,80
2016-06-08T22:41:36.995Z,84
2016-06-08T22:42:36.934Z,84
2016-06-08T22:43:36.969Z,80
2016-06-08T22:44:36.972Z,80
2016-06-08T22:45:36.959Z,80
2016-06-08T22:46:37.055Z,84
2016-06-08T22:47:37.513Z,84
2016-06-08T22:48:38.641Z,84
2016-06-08T22:49:36.815Z,80
2016-06-08T22:50:36.974Z,84
2016-06-08T22:51:36.978Z,80
2016-06-08T22:52:36.965Z,84
2016-06-08T22:53:36.968Z,84
2016-06-08T22:54:36.987Z,84
2016-06-08T22:55:36.833Z,84
2016-06-08T22:56:36.993Z,80
2016-06-08T22:57:37.293Z,84
2016-06-08T22:58:36.984Z,84
2016-06-08T22:59:38.112Z,84
2016-06-08T23:00:37.006Z,84
2016-06-08T23:01:37.149Z,80
2016-06-08T23:02:37.902Z,84
2016-06-08T23:03:36.858Z,80
2016-06-08T23:04:37.018Z,80
2016-06-08T23:05:37.021Z,80
2016-06-08T23:06:37.008Z,84
2016-06-08T23:07:37.011Z,80
2016-06-08T23:08:37.577Z,80
2016-06-08T23:09:37.033Z,80
2016-06-08T23:10:37.739Z,80
2016-06-08T23:11:37.023Z,80
2016-06-08T23:12:37.432Z,80
2016-06-08T23:13:37.030Z,80
2016-06-08T23:14:37.033Z,80
2016-06-08T23:15:37.036Z,80
2016-06-08T23:16:37.039Z,80
2016-06-08T23:17:37.261Z,80
2016-06-08T23:18:36.967Z,80
2016-06-08T23:19:37.704Z,80
2016-06-08T23:20:37.118Z,80
2016-06-08T23:21:37.845Z,80
2016-06-08T23:22:37.196Z,80
2016-06-08T23:23:37.642Z,0
2016-06-08T23:24:37.254Z,0
2016-06-08T23:25:37.287Z,0
2016-06-08T23:26:37.286Z,0
2016-06-08T23:27:37.302Z,0
2016-06-08T23:28:37.318Z,0
2016-06-08T23:29:37.482Z,0
2016-06-08T23:30:38.382Z,0
2016-06-08T23:31:37.358Z,0
2016-06-08T23:32:38.865Z,0
2016-06-08T23:33:37.373Z,0
2016-06-08T23:34:38.472Z,0
2016-06-08T23:35:37.368Z,0
2016-06-08T23:36:37.373Z,0
2016-06-08T23:37:37.378Z,0
2016-06-08T23:38:37.399Z,0
2016-06-08T23:39:37.402Z,0
2016-06-08T23:40:37.406Z,0
2016-06-08T23:41:40.049Z,0
2016-06-08T23:42:37.459Z,0
2016-06-08T23:43:37.509Z,0
2016-06-08T23:44:37.420Z,0
2016-06-08T23:45:38.485Z,0
2016-06-08T23:46:37.427Z,0
2016-06-08T23:47:37.430Z,0
2016-06-08T23:48:38.198Z,0
2016-06-08T23:49:37.437Z,0
2016-06-08T23:50:37.440Z,0
2016-06-08T23:51:37.457Z,0
2016-06-08T23:52:38.555Z,0
2016-06-08T23:53:37.449Z,0
2016-06-08T23:54:37.608Z,0
2016-06-08T23:55:37.455Z,0
2016-06-08T23:56:38.568Z,0
2016-06-08T23:57:37.461Z,0
2016-06-08T23:58:37.464Z,0
2016-06-08T23:59:37.483Z,0
